Time;durP1;ratioP1;P1;durP2;ratioP2;P2;SDS_P1;SDS_P2;PMS_P1;PMS_P2;Temp;Humidity;BMP_temperature;BMP_pressure;BME280_temperature;BME280_humidity;BME280_pressure;Samples;Min_cycle;Max_cycle;Signal;HPM_P1;HPM_P2
2023/03/12 00:01:32;;;;;;;3.40;1.70;;;;;;;;;;4972875;28;20263;-85
2023/03/12 00:04:03;;;;;;;2.13;1.43;;;;;;;;;;4972758;28;20235;-83
2023/03/12 00:06:28;;;;;;;3.17;1.67;;;;;;;;;;4957290;28;20638;-83
2023/03/12 00:09:00;;;;;;;2.27;1.50;;;;;;;;;;4984516;28;20291;-84
2023/03/12 00:11:29;;;;;;;3.30;1.87;;;;;;;;;;4963457;28;20697;-84
2023/03/12 00:13:58;;;;;;;1.90;1.57;;;;;;;;;;4966603;28;20217;-84
2023/03/12 00:16:24;;;;;;;2.17;1.43;;;;;;;;;;4991553;28;20256;-84
2023/03/12 00:18:51;;;;;;;2.00;1.37;;;;;;;;;;4974259;28;20225;-83
2023/03/12 00:21:20;;;;;;;3.60;1.60;;;;;;;;;;4979347;28;20225;-85
2023/03/12 00:23:49;;;;;;;1.80;1.60;;;;;;;;;;4970973;28;20208;-84
2023/03/12 00:26:15;;;;;;;5.43;1.60;;;;;;;;;;4988791;28;20291;-85
2023/03/12 00:28:40;;;;;;;4.07;1.53;;;;;;;;;;4993245;28;20221;-85
2023/03/12 00:31:26;;;;;;;3.50;1.70;;;;;;;;;;4970106;28;20234;-86
2023/03/12 00:33:52;;;;;;;1.43;1.30;;;;;;;;;;4964767;28;20218;-84
2023/03/12 00:36:18;;;;;;;3.27;1.40;;;;;;;;;;4965320;28;20234;-85
2023/03/12 00:38:46;;;;;;;4.13;1.80;;;;;;;;;;4974819;28;20216;-85
2023/03/12 00:41:13;;;;;;;1.83;1.40;;;;;;;;;;4985306;28;20221;-86
2023/03/12 00:43:39;;;;;;;2.17;1.70;;;;;;;;;;4985459;28;20225;-84
2023/03/12 00:46:07;;;;;;;2.93;1.60;;;;;;;;;;4982314;28;20220;-83
2023/03/12 00:48:35;;;;;;;1.50;1.40;;;;;;;;;;4980394;28;20236;-82
2023/03/12 00:51:00;;;;;;;2.30;1.60;;;;;;;;;;4967886;28;20232;-83
2023/03/12 00:53:28;;;;;;;1.37;1.27;;;;;;;;;;4970982;28;20222;-84
2023/03/12 00:55:55;;;;;;;3.90;1.63;;;;;;;;;;4967634;28;20233;-83
2023/03/12 00:58:23;;;;;;;1.90;1.60;;;;;;;;;;5004038;28;20239;-84
2023/03/12 01:00:49;;;;;;;5.87;1.40;;;;;;;;;;5003211;28;20217;-82
2023/03/12 01:03:15;;;;;;;3.80;1.60;;;;;;;;;;4981371;28;20347;-84
2023/03/12 01:05:42;;;;;;;5.20;2.00;;;;;;;;;;4981114;28;20221;-83
2023/03/12 01:08:08;;;;;;;2.27;1.73;;;;;;;;;;5009937;28;20301;-84
2023/03/12 01:10:38;;;;;;;1.83;1.53;;;;;;;;;;4980871;28;20236;-83
2023/03/12 01:13:04;;;;;;;1.67;1.57;;;;;;;;;;4969285;28;20804;-83
2023/03/12 01:15:32;;;;;;;4.30;1.90;;;;;;;;;;4996245;28;20221;-84
2023/03/12 01:18:00;;;;;;;2.20;1.50;;;;;;;;;;4971441;28;20213;-85
2023/03/12 01:20:28;;;;;;;1.63;1.47;;;;;;;;;;4997127;28;20229;-85
2023/03/12 01:22:54;;;;;;;2.10;1.63;;;;;;;;;;4977745;28;20276;-83
2023/03/12 01:25:21;;;;;;;1.93;1.60;;;;;;;;;;4965329;28;20225;-84
2023/03/12 01:27:49;;;;;;;2.50;1.60;;;;;;;;;;4994577;28;20225;-83
2023/03/12 01:30:17;;;;;;;1.73;1.37;;;;;;;;;;4972878;28;20217;-83
2023/03/12 01:32:42;;;;;;;3.83;2.00;;;;;;;;;;5001192;28;20725;-83
2023/03/12 01:35:13;;;;;;;2.57;1.50;;;;;;;;;;4968555;28;20228;-83
2023/03/12 01:37:40;;;;;;;3.50;1.70;;;;;;;;;;5011776;28;20305;-85
2023/03/12 01:40:12;;;;;;;2.80;1.40;;;;;;;;;;4982708;28;20575;-85
2023/03/12 01:42:38;;;;;;;11.07;6.57;;;;;;;;;;4985837;28;20232;-85
2023/03/12 01:45:04;;;;;;;7.60;4.07;;;;;;;;;;4977167;28;20583;-84
2023/03/12 01:47:31;;;;;;;4.53;2.50;;;;;;;;;;4967419;28;20286;-86
2023/03/12 01:49:57;;;;;;;2.30;2.10;;;;;;;;;;4974909;28;20217;-84
2023/03/12 01:52:32;;;;;;;2.53;1.90;;;;;;;;;;5004311;28;20846;-82
2023/03/12 01:55:01;;;;;;;2.40;1.73;;;;;;;;;;4984582;28;20698;-83
2023/03/12 01:57:35;;;;;;;2.87;1.80;;;;;;;;;;4994724;28;20248;-84
2023/03/12 02:00:14;;;;;;;2.03;1.80;;;;;;;;;;4974703;28;20596;-83
2023/03/12 02:02:43;;;;;;;3.20;2.00;;;;;;;;;;4970140;28;20708;-84
2023/03/12 02:05:26;;;;;;;2.63;2.17;;;;;;;;;;4969072;28;21006;-83
2023/03/12 02:07:52;;;;;;;2.80;1.80;;;;;;;;;;5007386;28;20220;-84
2023/03/12 02:10:18;;;;;;;3.03;2.30;;;;;;;;;;4971888;28;20224;-85
2023/03/12 02:12:46;;;;;;;3.97;2.10;;;;;;;;;;4976040;28;20228;-85
2023/03/12 02:15:16;;;;;;;2.30;2.10;;;;;;;;;;4976845;28;20287;-85
2023/03/12 02:17:42;;;;;;;3.40;1.90;;;;;;;;;;4977549;28;20238;-83
2023/03/12 02:20:40;;;;;;;2.40;2.20;;;;;;;;;;4999978;28;20767;-84
2023/03/12 02:23:20;;;;;;;2.27;2.07;;;;;;;;;;5011174;28;20221;-85
2023/03/12 02:25:49;;;;;;;2.20;2.00;;;;;;;;;;5000420;28;20228;-85
2023/03/12 02:28:18;;;;;;;3.60;1.90;;;;;;;;;;4975817;28;20245;-84
2023/03/12 02:30:48;;;;;;;2.70;2.10;;;;;;;;;;4983439;28;20241;-82
2023/03/12 02:33:14;;;;;;;3.67;1.97;;;;;;;;;;4967266;28;20216;-83
2023/03/12 02:35:41;;;;;;;2.10;1.90;;;;;;;;;;4974875;28;20675;-82
2023/03/12 02:38:31;;;;;;;2.67;2.43;;;;;;;;;;4957361;28;20716;-83
2023/03/12 02:40:57;;;;;;;5.27;2.10;;;;;;;;;;5029619;28;20226;-82
2023/03/12 02:43:28;;;;;;;3.60;2.17;;;;;;;;;;4966090;28;20614;-84
2023/03/12 02:45:56;;;;;;;2.87;2.20;;;;;;;;;;4980104;28;20212;-83
2023/03/12 02:48:22;;;;;;;3.03;2.03;;;;;;;;;;4975283;28;20704;-84
2023/03/12 02:50:47;;;;;;;2.40;1.83;;;;;;;;;;4997441;28;20235;-84
2023/03/12 02:53:16;;;;;;;3.77;2.50;;;;;;;;;;4991303;28;20213;-83
2023/03/12 02:55:41;;;;;;;2.33;1.90;;;;;;;;;;4980411;28;20233;-84
2023/03/12 02:58:07;;;;;;;3.30;2.07;;;;;;;;;;4982739;28;20231;-82
2023/03/12 03:00:32;;;;;;;4.30;2.17;;;;;;;;;;4993924;28;20238;-83
2023/03/12 03:03:01;;;;;;;1.90;1.73;;;;;;;;;;4971274;28;20268;-85
2023/03/12 03:05:27;;;;;;;4.77;1.90;;;;;;;;;;4971575;28;20217;-84
2023/03/12 03:07:55;;;;;;;2.07;1.87;;;;;;;;;;5004526;28;20220;-85
2023/03/12 03:10:22;;;;;;;2.77;2.40;;;;;;;;;;4997599;28;20229;-85
2023/03/12 03:12:48;;;;;;;2.50;2.30;;;;;;;;;;4958943;28;20677;-83
2023/03/12 03:15:15;;;;;;;3.80;2.10;;;;;;;;;;4979121;28;20690;-84
2023/03/12 03:17:46;;;;;;;2.00;1.90;;;;;;;;;;4965714;28;20228;-84
2023/03/12 03:20:16;;;;;;;3.40;2.17;;;;;;;;;;4981958;28;20225;-85
2023/03/12 03:22:46;;;;;;;3.53;2.20;;;;;;;;;;4975067;28;20284;-84
2023/03/12 03:25:12;;;;;;;2.30;2.10;;;;;;;;;;4974816;28;21210;-85
2023/03/12 03:27:40;;;;;;;4.47;2.40;;;;;;;;;;4960763;28;20220;-85
2023/03/12 03:30:10;;;;;;;2.60;2.20;;;;;;;;;;4969704;28;20227;-81
2023/03/12 03:32:40;;;;;;;4.63;2.50;;;;;;;;;;4984776;28;20231;-83
2023/03/12 03:35:08;;;;;;;3.23;2.37;;;;;;;;;;4994460;28;20259;-82
2023/03/12 03:37:33;;;;;;;2.47;2.20;;;;;;;;;;4959565;28;20225;-83
2023/03/12 03:39:59;;;;;;;3.43;2.43;;;;;;;;;;4985424;28;20228;-84
2023/03/12 03:42:27;;;;;;;2.37;2.17;;;;;;;;;;4966671;28;20227;-83
2023/03/12 03:44:55;;;;;;;4.63;2.57;;;;;;;;;;4994563;28;20225;-85
2023/03/12 03:47:20;;;;;;;3.70;2.40;;;;;;;;;;4979942;28;20235;-81
2023/03/12 03:49:46;;;;;;;2.30;2.10;;;;;;;;;;4975921;28;20288;-84
2023/03/12 03:52:12;;;;;;;2.30;2.10;;;;;;;;;;4956429;28;20229;-83
2023/03/12 03:54:39;;;;;;;4.73;2.60;;;;;;;;;;4987623;28;20280;-83
2023/03/12 03:57:10;;;;;;;3.50;2.40;;;;;;;;;;4983317;28;20241;-83
2023/03/12 03:59:35;;;;;;;3.83;2.53;;;;;;;;;;4969845;28;21137;-80
2023/03/12 04:02:03;;;;;;;2.63;2.37;;;;;;;;;;4995530;28;20567;-82
2023/03/12 04:04:34;;;;;;;4.03;2.87;;;;;;;;;;4977462;28;20227;-83
2023/03/12 04:07:03;;;;;;;2.50;2.30;;;;;;;;;;4966712;28;20232;-84
2023/03/12 04:09:31;;;;;;;2.87;2.57;;;;;;;;;;5015321;28;20315;-83
2023/03/12 04:11:59;;;;;;;2.87;2.50;;;;;;;;;;4966298;28;20220;-83
2023/03/12 04:14:27;;;;;;;3.77;2.00;;;;;;;;;;4981269;28;20268;-83
2023/03/12 04:16:53;;;;;;;2.23;2.13;;;;;;;;;;4981213;28;20235;-85
2023/03/12 04:19:22;;;;;;;5.10;2.70;;;;;;;;;;4977701;28;20217;-84
2023/03/12 04:21:50;;;;;;;3.40;2.53;;;;;;;;;;4960658;28;20309;-84
2023/03/12 04:24:19;;;;;;;3.10;2.77;;;;;;;;;;4976918;28;20728;-85
2023/03/12 04:26:44;;;;;;;4.07;2.53;;;;;;;;;;4978211;28;20689;-84
2023/03/12 04:29:14;;;;;;;3.13;2.63;;;;;;;;;;4975511;28;20591;-84
2023/03/12 04:31:40;;;;;;;3.53;2.47;;;;;;;;;;4979431;28;20221;-85
2023/03/12 04:34:09;;;;;;;5.40;2.73;;;;;;;;;;4995146;28;20651;-84
2023/03/12 04:36:37;;;;;;;5.80;3.40;;;;;;;;;;4962408;28;20307;-84
2023/03/12 04:39:06;;;;;;;3.57;2.80;;;;;;;;;;4986207;28;20213;-85
2023/03/12 04:41:34;;;;;;;3.03;2.50;;;;;;;;;;4985770;28;20738;-82
2023/03/12 04:44:07;;;;;;;3.60;2.50;;;;;;;;;;4981700;28;20236;-84
2023/03/12 04:46:34;;;;;;;3.37;2.90;;;;;;;;;;4993507;28;20248;-83
2023/03/12 04:49:02;;;;;;;4.87;2.70;;;;;;;;;;4979640;28;20216;-83
2023/03/12 04:51:34;;;;;;;2.73;2.40;;;;;;;;;;4990374;28;20236;-85
2023/03/12 04:54:02;;;;;;;3.57;2.73;;;;;;;;;;4981057;28;20646;-86
2023/03/12 04:56:31;;;;;;;3.00;2.70;;;;;;;;;;4980689;28;20228;-85
2023/03/12 04:58:59;;;;;;;3.03;2.73;;;;;;;;;;4963561;28;20686;-84
2023/03/12 05:01:33;;;;;;;3.90;2.90;;;;;;;;;;4959822;28;20312;-85
2023/03/12 05:04:03;;;;;;;3.10;2.73;;;;;;;;;;4978898;28;20772;-83
2023/03/12 05:06:29;;;;;;;4.70;3.47;;;;;;;;;;4980597;28;20232;-85
2023/03/12 05:08:56;;;;;;;3.70;3.37;;;;;;;;;;4978443;28;20248;-86
2023/03/12 05:11:25;;;;;;;4.60;2.93;;;;;;;;;;4969170;28;25591;-82
2023/03/12 05:13:53;;;;;;;3.47;3.17;;;;;;;;;;4985762;28;20220;-86
2023/03/12 05:16:19;;;;;;;3.67;3.37;;;;;;;;;;4983775;28;20282;-86
2023/03/12 05:18:44;;;;;;;3.17;2.87;;;;;;;;;;5000244;28;20226;-84
2023/03/12 05:21:12;;;;;;;3.07;2.87;;;;;;;;;;5011365;28;20239;-84
2023/03/12 05:23:41;;;;;;;3.87;3.47;;;;;;;;;;4990349;28;20225;-82
2023/03/12 05:26:20;;;;;;;3.97;3.57;;;;;;;;;;4974815;28;20293;-83
2023/03/12 05:28:51;;;;;;;4.53;3.37;;;;;;;;;;5005933;28;20353;-82
2023/03/12 05:31:21;;;;;;;4.87;3.33;;;;;;;;;;4982614;28;20240;-87
2023/03/12 05:33:47;;;;;;;9.87;3.90;;;;;;;;;;4986470;28;20217;-85
2023/03/12 05:36:13;;;;;;;4.43;3.33;;;;;;;;;;4975461;28;21002;-86
2023/03/12 05:38:41;;;;;;;4.00;3.60;;;;;;;;;;4988049;28;20228;-86
2023/03/12 05:41:39;;;;;;;3.73;3.40;;;;;;;;;;5023036;23;20221;-75
2023/03/12 05:44:12;;;;;;;4.17;3.43;;;;;;;;;;5053975;28;20775;-75
2023/03/12 05:46:41;;;;;;;3.90;3.60;;;;;;;;;;5033695;28;20231;-75
2023/03/12 05:49:09;;;;;;;4.00;3.53;;;;;;;;;;5017770;28;20246;-75
2023/03/12 05:51:35;;;;;;;4.07;3.67;;;;;;;;;;5021296;28;20301;-75
2023/03/12 05:54:03;;;;;;;4.13;3.80;;;;;;;;;;5053517;28;20220;-75
2023/03/12 05:56:29;;;;;;;3.70;3.37;;;;;;;;;;5017157;28;20223;-76
2023/03/12 05:59:00;;;;;;;4.53;3.70;;;;;;;;;;5051014;28;20889;-75
2023/03/12 06:01:30;;;;;;;4.07;3.67;;;;;;;;;;5018444;28;20225;-75
2023/03/12 06:03:59;;;;;;;4.83;3.27;;;;;;;;;;5037219;28;20298;-75
2023/03/12 06:06:30;;;;;;;5.10;3.50;;;;;;;;;;4990357;28;20952;-74
2023/03/12 06:08:56;;;;;;;4.13;3.57;;;;;;;;;;5008648;28;20250;-75
2023/03/12 06:11:24;;;;;;;5.07;3.80;;;;;;;;;;5007840;28;20223;-77
2023/03/12 06:13:49;;;;;;;4.53;4.03;;;;;;;;;;5039488;28;20296;-76
2023/03/12 06:16:20;;;;;;;4.07;3.67;;;;;;;;;;4991710;28;20245;-76
2023/03/12 06:18:46;;;;;;;4.50;3.60;;;;;;;;;;5035371;28;20740;-76
2023/03/12 06:21:22;;;;;;;5.40;4.53;;;;;;;;;;5008184;28;21436;-75
2023/03/12 06:23:48;;;;;;;4.40;4.00;;;;;;;;;;5025883;28;20246;-77
2023/03/12 06:26:19;;;;;;;5.17;4.60;;;;;;;;;;5008616;28;20227;-76
2023/03/12 06:28:47;;;;;;;8.40;5.10;;;;;;;;;;5036846;28;20319;-73
2023/03/12 06:31:15;;;;;;;5.70;4.80;;;;;;;;;;5013956;28;20314;-76
2023/03/12 06:33:45;;;;;;;4.37;3.97;;;;;;;;;;5020194;28;20306;-76
2023/03/12 06:36:11;;;;;;;5.40;3.83;;;;;;;;;;5040437;28;20223;-74
2023/03/12 06:38:39;;;;;;;4.17;3.77;;;;;;;;;;4990409;28;20216;-75
2023/03/12 06:41:17;;;;;;;4.93;4.13;;;;;;;;;;5007035;28;20231;-76
2023/03/12 06:43:48;;;;;;;4.13;3.70;;;;;;;;;;5022177;28;20221;-75
2023/03/12 06:46:15;;;;;;;3.93;3.60;;;;;;;;;;5011272;28;20318;-75
2023/03/12 06:48:41;;;;;;;3.97;3.43;;;;;;;;;;4991574;23;20253;-86
2023/03/12 06:51:12;;;;;;;5.43;4.30;;;;;;;;;;4976285;28;20973;-86
2023/03/12 06:53:38;;;;;;;5.90;4.03;;;;;;;;;;4955871;28;20229;-82
2023/03/12 06:56:04;;;;;;;7.77;4.43;;;;;;;;;;4975288;28;20227;-83
2023/03/12 06:58:29;;;;;;;5.33;3.80;;;;;;;;;;4940914;28;20305;-84
2023/03/12 07:00:55;;;;;;;7.73;4.60;;;;;;;;;;4978514;28;20253;-84
2023/03/12 07:03:21;;;;;;;4.90;4.50;;;;;;;;;;4943485;28;20237;-85
2023/03/12 07:05:49;;;;;;;6.93;4.47;;;;;;;;;;4959665;28;20586;-81
2023/03/12 07:08:14;;;;;;;6.17;4.10;;;;;;;;;;4939193;28;20285;-82
2023/03/12 07:10:42;;;;;;;4.60;4.00;;;;;;;;;;4956631;28;20264;-86
2023/03/12 07:13:08;;;;;;;4.77;3.70;;;;;;;;;;4956755;28;21614;-85
2023/03/12 07:15:38;;;;;;;6.40;4.03;;;;;;;;;;4929074;28;20440;-85
2023/03/12 07:18:05;;;;;;;5.23;3.63;;;;;;;;;;4937290;28;20225;-84
2023/03/12 07:20:33;;;;;;;4.23;3.70;;;;;;;;;;4962591;28;20233;-86
2023/03/12 07:22:59;;;;;;;3.90;3.13;;;;;;;;;;4939606;28;20583;-82
2023/03/12 07:25:24;;;;;;;4.13;3.20;;;;;;;;;;4939150;28;20233;-83
2023/03/12 07:27:53;;;;;;;3.67;3.10;;;;;;;;;;4940492;28;20237;-83
2023/03/12 07:30:21;;;;;;;3.20;2.90;;;;;;;;;;4943654;28;20237;-85
2023/03/12 07:32:48;;;;;;;2.60;2.40;;;;;;;;;;4976145;28;20230;-82
2023/03/12 07:35:16;;;;;;;3.03;2.50;;;;;;;;;;4972143;28;20218;-83
2023/03/12 07:37:44;;;;;;;2.60;2.40;;;;;;;;;;4940006;28;20225;-82
2023/03/12 07:40:10;;;;;;;2.60;2.40;;;;;;;;;;4933031;28;20229;-83
2023/03/12 07:42:35;;;;;;;4.03;2.37;;;;;;;;;;4957176;28;20213;-81
2023/03/12 07:45:06;;;;;;;2.53;2.10;;;;;;;;;;4947598;28;20220;-83
2023/03/12 07:47:34;;;;;;;3.10;2.43;;;;;;;;;;4941875;28;20232;-83
2023/03/12 07:50:02;;;;;;;2.37;2.03;;;;;;;;;;4956075;28;20213;-83
2023/03/12 07:52:27;;;;;;;2.33;2.13;;;;;;;;;;4971373;28;20253;-84
2023/03/12 07:54:56;;;;;;;3.53;2.63;;;;;;;;;;4949361;28;20313;-85
2023/03/12 07:57:21;;;;;;;2.50;2.30;;;;;;;;;;4952398;28;20238;-84
2023/03/12 07:59:47;;;;;;;3.47;2.20;;;;;;;;;;4970367;28;20611;-84
2023/03/12 08:02:16;;;;;;;2.63;1.90;;;;;;;;;;4972204;28;20214;-82
2023/03/12 08:04:46;;;;;;;2.27;2.10;;;;;;;;;;4962529;28;20226;-84
2023/03/12 08:07:12;;;;;;;3.27;2.07;;;;;;;;;;4970832;28;20225;-84
2023/03/12 08:09:38;;;;;;;4.17;2.67;;;;;;;;;;4962934;28;20281;-84
2023/03/12 08:12:06;;;;;;;3.60;2.00;;;;;;;;;;4943522;28;20320;-84
2023/03/12 08:14:34;;;;;;;2.57;2.00;;;;;;;;;;4981507;28;20217;-83
2023/03/12 08:17:00;;;;;;;2.20;1.90;;;;;;;;;;4959001;28;20316;-84
2023/03/12 08:19:28;;;;;;;2.47;2.07;;;;;;;;;;4960194;28;20218;-84
2023/03/12 08:21:56;;;;;;;2.90;2.20;;;;;;;;;;4967522;28;20222;-83
2023/03/12 08:24:22;;;;;;;2.33;1.93;;;;;;;;;;4959226;28;20705;-83
2023/03/12 08:26:47;;;;;;;2.43;2.23;;;;;;;;;;4934559;28;20482;-81
2023/03/12 08:29:15;;;;;;;2.23;1.73;;;;;;;;;;4973890;28;20798;-84
2023/03/12 08:31:41;;;;;;;2.43;2.10;;;;;;;;;;4964076;28;20321;-84
2023/03/12 08:34:07;;;;;;;2.97;2.00;;;;;;;;;;4958804;28;20257;-84
2023/03/12 08:36:36;;;;;;;2.20;2.00;;;;;;;;;;4958533;28;20226;-83
2023/03/12 08:39:02;;;;;;;2.03;1.80;;;;;;;;;;4945133;28;20229;-85
2023/03/12 08:41:29;;;;;;;3.47;1.93;;;;;;;;;;4945266;28;20229;-84
2023/03/12 08:43:54;;;;;;;2.60;2.10;;;;;;;;;;4962635;28;20224;-82
2023/03/12 08:46:20;;;;;;;2.97;2.10;;;;;;;;;;4950894;28;20301;-83
2023/03/12 08:48:47;;;;;;;2.73;2.13;;;;;;;;;;4976430;28;20336;-85
2023/03/12 08:51:19;;;;;;;3.77;1.93;;;;;;;;;;4946906;28;20233;-83
2023/03/12 08:53:44;;;;;;;2.90;2.10;;;;;;;;;;4946833;28;20228;-86
2023/03/12 08:56:12;;;;;;;2.43;1.90;;;;;;;;;;4944918;28;20583;-84
2023/03/12 08:58:37;;;;;;;2.80;2.13;;;;;;;;;;4936060;28;20226;-84
2023/03/12 09:01:07;;;;;;;3.10;2.10;;;;;;;;;;4944913;28;20225;-83
2023/03/12 09:03:33;;;;;;;3.90;2.23;;;;;;;;;;4962082;28;20285;-85
2023/03/12 09:06:13;;;;;;;3.90;2.40;;;;;;;;;;4958110;28;20228;-84
2023/03/12 09:08:44;;;;;;;3.17;2.23;;;;;;;;;;4937865;28;20226;-84
2023/03/12 09:11:13;;;;;;;2.50;2.10;;;;;;;;;;4945009;28;20225;-84
2023/03/12 09:13:40;;;;;;;4.57;2.37;;;;;;;;;;4944539;28;20303;-85
2023/03/12 09:16:11;;;;;;;2.47;2.20;;;;;;;;;;4957421;28;20225;-84
2023/03/12 09:18:39;;;;;;;5.87;2.00;;;;;;;;;;4957689;28;20222;-86
2023/03/12 09:21:07;;;;;;;2.60;2.07;;;;;;;;;;4975227;28;20233;-85
2023/03/12 09:23:35;;;;;;;3.07;2.30;;;;;;;;;;4944953;28;20309;-84
2023/03/12 09:26:00;;;;;;;5.07;2.53;;;;;;;;;;4939436;28;20234;-84
2023/03/12 09:28:26;;;;;;;3.60;2.67;;;;;;;;;;4942805;28;20244;-84
2023/03/12 09:30:54;;;;;;;6.00;2.37;;;;;;;;;;4931446;28;20272;-83
2023/03/12 09:33:25;;;;;;;2.30;2.10;;;;;;;;;;4947874;28;20229;-84
2023/03/12 09:35:57;;;;;;;4.20;2.37;;;;;;;;;;4970091;28;20246;-84
2023/03/12 09:38:30;;;;;;;3.83;2.07;;;;;;;;;;4942008;28;20241;-84
2023/03/12 09:44:51;;;;;;;3.27;1.90;;;;;;;;;;4896879;28;20231;-86
2023/03/12 09:51:17;;;;;;;5.93;2.00;;;;;;;;;;4966849;28;20208;-85
2023/03/12 09:54:58;;;;;;;;;;;;;;;;;;;;;
2023/03/12 09:58:03;;;;;;;;;;;;;;;;;;;;;
2023/03/12 10:01:00;;;;;;;2.30;1.70;;;;;;;;;;4961198;28;20228;-84
2023/03/12 10:04:06;;;;;;;2.97;1.87;;;;;;;;;;4942126;28;20222;-83
2023/03/12 10:06:50;;;;;;;3.17;2.03;;;;;;;;;;4960447;28;20222;-84
2023/03/12 10:09:33;;;;;;;3.27;1.80;;;;;;;;;;5000049;28;20259;-83
2023/03/12 10:12:20;;;;;;;5.90;2.13;;;;;;;;;;4993986;28;20222;-84
2023/03/12 10:14:56;;;;;;;2.83;1.70;;;;;;;;;;4983192;28;20293;-83
2023/03/12 10:17:46;;;;;;;3.53;1.83;;;;;;;;;;4962731;28;20277;-84
2023/03/12 10:20:24;;;;;;;2.10;1.77;;;;;;;;;;4974133;28;20264;-84
2023/03/12 10:23:11;;;;;;;3.73;2.00;;;;;;;;;;4986999;28;20694;-83
2023/03/12 10:26:25;;;;;;;4.17;2.00;;;;;;;;;;4955481;28;20226;-83
2023/03/12 10:28:54;;;;;;;1.67;1.50;;;;;;;;;;4917517;29;20290;-84
2023/03/12 10:31:42;;;;;;;3.33;1.87;;;;;;;;;;4952900;28;20233;-85
2023/03/12 10:34:33;;;;;;;2.60;1.60;;;;;;;;;;4951072;28;20698;-84
2023/03/12 10:37:01;;;;;;;2.13;1.53;;;;;;;;;;4976152;28;20234;-82
2023/03/12 10:39:29;;;;;;;3.90;1.90;;;;;;;;;;4937746;28;20214;-84
2023/03/12 10:41:55;;;;;;;2.67;1.73;;;;;;;;;;4941566;28;20233;-84
2023/03/12 10:44:22;;;;;;;2.17;1.60;;;;;;;;;;4957964;28;20233;-84
2023/03/12 10:47:23;;;;;;;1.97;1.80;;;;;;;;;;4975733;28;20202;-83
2023/03/12 10:49:53;;;;;;;1.93;1.60;;;;;;;;;;4989877;28;20628;-83
2023/03/12 10:52:20;;;;;;;3.10;1.80;;;;;;;;;;4977017;28;20222;-81
2023/03/12 10:54:47;;;;;;;3.40;1.97;;;;;;;;;;4954762;28;20228;-85
2023/03/12 10:57:15;;;;;;;3.03;1.60;;;;;;;;;;4973394;28;20340;-84
2023/03/12 10:59:44;;;;;;;4.37;1.90;;;;;;;;;;4927189;28;20221;-86
2023/03/12 11:02:29;;;;;;;2.10;1.70;;;;;;;;;;4950452;28;20300;-85
2023/03/12 11:04:55;;;;;;;3.00;1.70;;;;;;;;;;4988477;28;20230;-83
2023/03/12 11:07:34;;;;;;;2.37;1.40;;;;;;;;;;4949613;28;20760;-84
2023/03/12 11:10:05;;;;;;;4.30;2.00;;;;;;;;;;4938327;28;20253;-84
2023/03/12 11:12:31;;;;;;;2.43;1.63;;;;;;;;;;4987887;28;20234;-84
2023/03/12 11:14:57;;;;;;;2.93;1.50;;;;;;;;;;4966579;28;20713;-85
2023/03/12 11:17:24;;;;;;;2.83;1.70;;;;;;;;;;4947388;28;20300;-84
2023/03/12 11:19:52;;;;;;;3.33;1.50;;;;;;;;;;4933593;28;20218;-83
2023/03/12 11:22:32;;;;;;;2.03;1.50;;;;;;;;;;4936252;28;20250;-87
2023/03/12 11:25:04;;;;;;;2.50;1.73;;;;;;;;;;4963857;28;20228;-82
2023/03/12 11:27:40;;;;;;;2.40;1.43;;;;;;;;;;4951650;28;20244;-84
2023/03/12 11:30:10;;;;;;;10.80;7.07;;;;;;;;;;4971751;28;20230;-84
2023/03/12 11:32:36;;;;;;;2.77;1.70;;;;;;;;;;4972037;28;20237;-84
2023/03/12 11:35:11;;;;;;;1.43;1.23;;;;;;;;;;4938281;28;20302;-84
2023/03/12 11:37:55;;;;;;;3.57;2.47;;;;;;;;;;4977910;28;20238;-82
2023/03/12 11:40:27;;;;;;;3.87;1.53;;;;;;;;;;4988234;28;20233;-82
2023/03/12 11:43:14;;;;;;;11.20;10.07;;;;;;;;;;4949774;28;20229;-84
2023/03/12 11:45:59;;;;;;;7.73;7.00;;;;;;;;;;4972380;28;20249;-83
2023/03/12 11:48:35;;;;;;;5.03;4.33;;;;;;;;;;4989711;28;20236;-84
2023/03/12 11:51:13;;;;;;;2.80;2.33;;;;;;;;;;4938556;28;20730;-84
2023/03/12 11:54:07;;;;;;;3.40;2.83;;;;;;;;;;4983784;28;20389;-84
2023/03/12 11:56:39;;;;;;;2.33;1.60;;;;;;;;;;4965626;28;20234;-83
2023/03/12 11:59:13;;;;;;;2.93;1.40;;;;;;;;;;4948924;28;20273;-84
2023/03/12 12:01:48;;;;;;;1.80;1.50;;;;;;;;;;4971714;28;20220;-84
2023/03/12 12:04:26;;;;;;;1.40;1.30;;;;;;;;;;4956998;28;20234;-83
2023/03/12 12:07:31;;;;;;;3.13;1.50;;;;;;;;;;4986525;28;20695;-83
2023/03/12 12:10:02;;;;;;;2.50;1.47;;;;;;;;;;4955041;28;20297;-83
2023/03/12 12:12:30;;;;;;;1.90;1.30;;;;;;;;;;4970687;28;20222;-82
2023/03/12 12:15:15;;;;;;;1.87;1.27;;;;;;;;;;4996875;28;20265;-83
2023/03/12 12:17:53;;;;;;;1.80;1.30;;;;;;;;;;4983747;28;20256;-83
2023/03/12 12:20:20;;;;;;;3.60;1.17;;;;;;;;;;4984369;28;20218;-85
2023/03/12 12:23:11;;;;;;;2.10;1.27;;;;;;;;;;4996365;28;20222;-85
2023/03/12 12:26:04;;;;;;;2.23;1.10;;;;;;;;;;5003197;28;21144;-82
2023/03/12 12:28:53;;;;;;;1.07;1.00;;;;;;;;;;4969551;28;20221;-84
2023/03/12 12:31:39;;;;;;;1.87;1.60;;;;;;;;;;4964916;28;20234;-82
2023/03/12 12:34:21;;;;;;;2.73;1.50;;;;;;;;;;4970771;28;20229;-84
2023/03/12 12:36:50;;;;;;;3.67;1.47;;;;;;;;;;4982747;28;20240;-82
2023/03/12 12:39:57;;;;;;;1.87;1.50;;;;;;;;;;4966359;28;20221;-85
2023/03/12 12:42:25;;;;;;;2.30;1.53;;;;;;;;;;4946729;28;20418;-83
2023/03/12 12:44:53;;;;;;;1.93;1.53;;;;;;;;;;4934001;28;20222;-84
2023/03/12 12:47:29;;;;;;;2.03;1.50;;;;;;;;;;4969694;28;20301;-85
2023/03/12 12:49:57;;;;;;;1.87;1.30;;;;;;;;;;4945065;28;20271;-84
2023/03/12 12:52:23;;;;;;;1.57;1.30;;;;;;;;;;4981628;28;20238;-83
2023/03/12 12:55:10;;;;;;;2.07;1.33;;;;;;;;;;4946749;28;20333;-84
2023/03/12 12:57:50;;;;;;;2.30;1.40;;;;;;;;;;4975863;28;20233;-85
2023/03/12 13:00:37;;;;;;;2.07;1.67;;;;;;;;;;4985680;28;20308;-82
2023/03/12 13:03:03;;;;;;;2.77;1.67;;;;;;;;;;4998496;28;20232;-82
2023/03/12 13:05:35;;;;;;;1.73;1.60;;;;;;;;;;4967280;28;20226;-84
2023/03/12 13:08:03;;;;;;;1.70;1.53;;;;;;;;;;4998023;28;20259;-83
2023/03/12 13:10:32;;;;;;;3.73;1.87;;;;;;;;;;4979520;28;20230;-84
2023/03/12 13:12:58;;;;;;;1.73;1.63;;;;;;;;;;4982760;28;20251;-82
2023/03/12 13:15:30;;;;;;;5.07;2.07;;;;;;;;;;4966449;28;20248;-85
2023/03/12 13:17:58;;;;;;;2.13;1.93;;;;;;;;;;4996655;28;20226;-84
2023/03/12 13:20:29;;;;;;;2.10;1.90;;;;;;;;;;4959454;28;20245;-85
2023/03/12 13:23:11;;;;;;;2.20;1.80;;;;;;;;;;4955190;28;20225;-82
2023/03/12 13:25:59;;;;;;;2.57;1.77;;;;;;;;;;4997503;28;20221;-84
2023/03/12 13:28:31;;;;;;;2.97;1.80;;;;;;;;;;4948407;28;20761;-83
2023/03/12 13:31:01;;;;;;;2.17;1.90;;;;;;;;;;4980152;28;20232;-82
2023/03/12 13:33:47;;;;;;;2.40;2.07;;;;;;;;;;4979449;28;20265;-83
2023/03/12 13:36:15;;;;;;;2.83;1.97;;;;;;;;;;4996857;28;20230;-83
2023/03/12 13:38:56;;;;;;;2.00;1.77;;;;;;;;;;4984536;28;20226;-83
2023/03/12 13:41:31;;;;;;;2.43;1.90;;;;;;;;;;4982366;28;20748;-82
2023/03/12 13:43:56;;;;;;;2.37;2.10;;;;;;;;;;4981966;28;20232;-83
2023/03/12 13:46:36;;;;;;;4.37;2.33;;;;;;;;;;4975866;28;20239;-82
2023/03/12 13:49:04;;;;;;;3.60;2.30;;;;;;;;;;4958239;28;20228;-83
2023/03/12 13:51:29;;;;;;;2.53;2.13;;;;;;;;;;4965904;28;20285;-83
2023/03/12 13:53:58;;;;;;;3.03;2.23;;;;;;;;;;4969190;28;20229;-81
2023/03/12 13:56:26;;;;;;;6.83;2.70;;;;;;;;;;4987289;28;20226;-82
2023/03/12 13:59:14;;;;;;;4.50;2.47;;;;;;;;;;4955336;28;20781;-81
2023/03/12 14:01:42;;;;;;;2.67;2.47;;;;;;;;;;4964665;28;20221;-79
2023/03/12 14:04:11;;;;;;;2.73;2.43;;;;;;;;;;4973787;28;20281;-80
2023/03/12 14:07:01;;;;;;;4.30;2.20;;;;;;;;;;4990734;28;20841;-80
2023/03/12 14:09:40;;;;;;;3.47;2.40;;;;;;;;;;5013140;28;20284;-81
2023/03/12 14:12:18;;;;;;;2.40;2.20;;;;;;;;;;4997314;28;20230;-81
2023/03/12 14:14:55;;;;;;;2.33;2.13;;;;;;;;;;4995387;28;20210;-81
2023/03/12 14:17:26;;;;;;;2.60;2.30;;;;;;;;;;5006493;28;20292;-81
2023/03/12 14:20:18;;;;;;;2.57;2.30;;;;;;;;;;4964855;28;20237;-80
2023/03/12 14:22:47;;;;;;;2.43;2.23;;;;;;;;;;5007253;28;20245;-82
2023/03/12 14:25:35;;;;;;;2.27;2.00;;;;;;;;;;4972497;28;20230;-81
2023/03/12 14:28:23;;;;;;;2.53;2.30;;;;;;;;;;5013428;28;20230;-81
2023/03/12 14:30:56;;;;;;;3.03;2.30;;;;;;;;;;4989151;28;20276;-80
2023/03/12 14:33:21;;;;;;;2.73;2.30;;;;;;;;;;4977434;28;20249;-80
2023/03/12 14:35:52;;;;;;;2.40;2.20;;;;;;;;;;4981944;28;20222;-83
2023/03/12 14:38:26;;;;;;;2.70;2.50;;;;;;;;;;4965756;28;20227;-82
2023/03/12 14:40:52;;;;;;;2.70;2.50;;;;;;;;;;4961579;28;20285;-81
2023/03/12 14:43:31;;;;;;;2.30;2.20;;;;;;;;;;4985617;28;20825;-79
2023/03/12 14:46:04;;;;;;;2.50;2.30;;;;;;;;;;4983930;28;20225;-81
2023/03/12 14:48:35;;;;;;;2.47;2.27;;;;;;;;;;4995369;28;20229;-82
2023/03/12 14:51:04;;;;;;;2.50;2.30;;;;;;;;;;4983697;28;20218;-80
2023/03/12 14:53:32;;;;;;;3.30;2.50;;;;;;;;;;4982536;28;20234;-80
2023/03/12 14:56:03;;;;;;;2.80;2.40;;;;;;;;;;4964983;28;20234;-78
2023/03/12 14:58:35;;;;;;;2.77;2.57;;;;;;;;;;4982968;28;20229;-80
2023/03/12 15:01:05;;;;;;;2.50;2.30;;;;;;;;;;4965324;28;20268;-79
2023/03/12 15:03:37;;;;;;;2.27;2.17;;;;;;;;;;4964251;28;20221;-82
2023/03/12 15:06:03;;;;;;;2.93;2.57;;;;;;;;;;4959056;28;20228;-82
2023/03/12 15:08:30;;;;;;;2.40;2.20;;;;;;;;;;4979189;28;20222;-80
2023/03/12 15:10:56;;;;;;;2.70;2.50;;;;;;;;;;4947294;28;20226;-80
2023/03/12 15:13:23;;;;;;;2.87;2.67;;;;;;;;;;4951601;28;20226;-82
2023/03/12 15:15:49;;;;;;;2.87;2.67;;;;;;;;;;4961011;28;20613;-80
2023/03/12 15:18:27;;;;;;;2.67;2.57;;;;;;;;;;4991417;28;20234;-80